sensor_id;sensor_type;location;lat;lon;timestamp;P1;durP1;ratioP1;P2;durP2;ratioP2
41099;SDS011;26844;53.686;-6.346;2022-08-06T00:02:14;82.38;;;78.18;;
41099;SDS011;26844;53.686;-6.346;2022-08-06T00:04:39;75.28;;;71.13;;
41099;SDS011;26844;53.686;-6.346;2022-08-06T00:07:04;69.20;;;65.40;;
41099;SDS011;26844;53.686;-6.346;2022-08-06T00:09:30;72.38;;;68.60;;
41099;SDS011;26844;53.686;-6.346;2022-08-06T00:11:58;71.95;;;68.38;;
41099;SDS011;26844;53.686;-6.346;2022-08-06T00:14:24;75.07;;;70.70;;
41099;SDS011;26844;53.686;-6.346;2022-08-06T00:16:50;79.25;;;75.07;;
41099;SDS011;26844;53.686;-6.346;2022-08-06T00:19:15;82.75;;;78.13;;
41099;SDS011;26844;53.686;-6.346;2022-08-06T00:21:40;80.57;;;75.68;;
41099;SDS011;26844;53.686;-6.346;2022-08-06T00:24:06;82.75;;;78.05;;
41099;SDS011;26844;53.686;-6.346;2022-08-06T00:26:31;98.18;;;93.28;;
41099;SDS011;26844;53.686;-6.346;2022-08-06T00:28:57;119.18;;;113.32;;
41099;SDS011;26844;53.686;-6.346;2022-08-06T00:31:22;121.38;;;115.38;;
41099;SDS011;26844;53.686;-6.346;2022-08-06T00:33:47;117.22;;;111.63;;
41099;SDS011;26844;53.686;-6.346;2022-08-06T00:36:12;123.05;;;117.03;;
41099;SDS011;26844;53.686;-6.346;2022-08-06T00:38:38;112.28;;;106.63;;
41099;SDS011;26844;53.686;-6.346;2022-08-06T00:41:03;90.38;;;85.43;;
41099;SDS011;26844;53.686;-6.346;2022-08-06T00:43:28;88.78;;;83.97;;
41099;SDS011;26844;53.686;-6.346;2022-08-06T00:45:53;101.28;;;96.25;;
41099;SDS011;26844;53.686;-6.346;2022-08-06T00:48:19;94.80;;;89.30;;
41099;SDS011;26844;53.686;-6.346;2022-08-06T00:50:44;90.93;;;86.40;;
41099;SDS011;26844;53.686;-6.346;2022-08-06T00:53:09;85.78;;;80.85;;
41099;SDS011;26844;53.686;-6.346;2022-08-06T00:55:34;88.15;;;83.50;;
41099;SDS011;26844;53.686;-6.346;2022-08-06T00:58:00;99.20;;;94.05;;
41099;SDS011;26844;53.686;-6.346;2022-08-06T01:00:25;106.97;;;101.28;;
41099;SDS011;26844;53.686;-6.346;2022-08-06T01:02:50;107.32;;;101.82;;
41099;SDS011;26844;53.686;-6.346;2022-08-06T01:05:15;91.68;;;87.00;;
41099;SDS011;26844;53.686;-6.346;2022-08-06T01:07:41;90.15;;;84.80;;
41099;SDS011;26844;53.686;-6.346;2022-08-06T01:10:06;84.00;;;79.55;;
41099;SDS011;26844;53.686;-6.346;2022-08-06T01:12:32;97.85;;;92.90;;
41099;SDS011;26844;53.686;-6.346;2022-08-06T01:14:57;96.45;;;91.13;;
41099;SDS011;26844;53.686;-6.346;2022-08-06T01:19:51;100.72;;;95.15;;
41099;SDS011;26844;53.686;-6.346;2022-08-06T01:27:48;93.97;;;89.03;;
41099;SDS011;26844;53.686;-6.346;2022-08-06T01:30:16;95.47;;;90.57;;
41099;SDS011;26844;53.686;-6.346;2022-08-06T01:35:34;97.13;;;91.68;;
41099;SDS011;26844;53.686;-6.346;2022-08-06T01:38:04;91.10;;;86.30;;
41099;SDS011;26844;53.686;-6.346;2022-08-06T01:40:31;89.30;;;84.57;;
41099;SDS011;26844;53.686;-6.346;2022-08-06T01:42:57;85.88;;;81.15;;
41099;SDS011;26844;53.686;-6.346;2022-08-06T01:45:25;91.63;;;86.78;;
41099;SDS011;26844;53.686;-6.346;2022-08-06T01:47:52;91.35;;;86.38;;
41099;SDS011;26844;53.686;-6.346;2022-08-06T01:50:19;107.25;;;101.43;;
41099;SDS011;26844;53.686;-6.346;2022-08-06T01:55:15;99.70;;;94.28;;
41099;SDS011;26844;53.686;-6.346;2022-08-06T01:57:43;93.72;;;88.93;;
41099;SDS011;26844;53.686;-6.346;2022-08-06T02:00:10;95.70;;;90.60;;
41099;SDS011;26844;53.686;-6.346;2022-08-06T02:02:35;94.10;;;89.00;;
41099;SDS011;26844;53.686;-6.346;2022-08-06T02:05:01;86.90;;;82.20;;
41099;SDS011;26844;53.686;-6.346;2022-08-06T02:07:29;77.03;;;72.53;;
41099;SDS011;26844;53.686;-6.346;2022-08-06T02:09:56;82.90;;;78.55;;
41099;SDS011;26844;53.686;-6.346;2022-08-06T02:12:23;79.28;;;74.40;;
41099;SDS011;26844;53.686;-6.346;2022-08-06T02:14:56;76.15;;;72.13;;
41099;SDS011;26844;53.686;-6.346;2022-08-06T02:17:27;68.63;;;64.15;;
41099;SDS011;26844;53.686;-6.346;2022-08-06T02:19:53;71.40;;;67.22;;
41099;SDS011;26844;53.686;-6.346;2022-08-06T02:22:20;79.57;;;75.30;;
41099;SDS011;26844;53.686;-6.346;2022-08-06T02:24:46;84.75;;;80.18;;
41099;SDS011;26844;53.686;-6.346;2022-08-06T02:27:12;99.28;;;93.63;;
41099;SDS011;26844;53.686;-6.346;2022-08-06T02:29:37;104.47;;;99.25;;
41099;SDS011;26844;53.686;-6.346;2022-08-06T02:32:04;154.07;;;146.15;;
41099;SDS011;26844;53.686;-6.346;2022-08-06T02:34:30;178.32;;;168.60;;
41099;SDS011;26844;53.686;-6.346;2022-08-06T02:36:56;185.55;;;175.30;;
41099;SDS011;26844;53.686;-6.346;2022-08-06T02:39:31;93.15;;;87.90;;
41099;SDS011;26844;53.686;-6.346;2022-08-06T02:42:39;93.35;;;88.25;;
41099;SDS011;26844;53.686;-6.346;2022-08-06T02:44:51;105.43;;;100.07;;
41099;SDS011;26844;53.686;-6.346;2022-08-06T02:47:21;85.53;;;80.80;;
41099;SDS011;26844;53.686;-6.346;2022-08-06T02:49:46;84.22;;;78.90;;
41099;SDS011;26844;53.686;-6.346;2022-08-06T02:52:19;65.35;;;61.65;;
41099;SDS011;26844;53.686;-6.346;2022-08-06T02:54:48;79.70;;;75.07;;
41099;SDS011;26844;53.686;-6.346;2022-08-06T02:57:20;86.00;;;81.30;;
41099;SDS011;26844;53.686;-6.346;2022-08-06T02:59:47;85.80;;;81.30;;
41099;SDS011;26844;53.686;-6.346;2022-08-06T03:02:14;55.28;;;51.60;;
41099;SDS011;26844;53.686;-6.346;2022-08-06T03:04:40;53.65;;;50.70;;
41099;SDS011;26844;53.686;-6.346;2022-08-06T03:07:07;67.60;;;63.67;;
41099;SDS011;26844;53.686;-6.346;2022-08-06T03:09:33;72.15;;;68.18;;
41099;SDS011;26844;53.686;-6.346;2022-08-06T03:11:59;63.90;;;59.95;;
41099;SDS011;26844;53.686;-6.346;2022-08-06T03:14:25;94.82;;;89.15;;
41099;SDS011;26844;53.686;-6.346;2022-08-06T03:16:51;77.28;;;72.53;;
41099;SDS011;26844;53.686;-6.346;2022-08-06T03:19:17;88.22;;;83.18;;
41099;SDS011;26844;53.686;-6.346;2022-08-06T03:21:44;59.72;;;56.15;;
41099;SDS011;26844;53.686;-6.346;2022-08-06T03:24:10;102.55;;;96.97;;
41099;SDS011;26844;53.686;-6.346;2022-08-06T03:26:37;66.87;;;62.40;;
41099;SDS011;26844;53.686;-6.346;2022-08-06T03:29:04;71.90;;;67.82;;
41099;SDS011;26844;53.686;-6.346;2022-08-06T03:31:31;77.13;;;72.63;;
41099;SDS011;26844;53.686;-6.346;2022-08-06T03:33:56;66.57;;;62.60;;
41099;SDS011;26844;53.686;-6.346;2022-08-06T03:36:22;66.50;;;62.83;;
41099;SDS011;26844;53.686;-6.346;2022-08-06T03:38:55;73.95;;;69.53;;
41099;SDS011;26844;53.686;-6.346;2022-08-06T03:41:21;73.78;;;69.53;;
41099;SDS011;26844;53.686;-6.346;2022-08-06T03:43:46;76.88;;;72.03;;
41099;SDS011;26844;53.686;-6.346;2022-08-06T03:46:12;75.85;;;71.72;;
41099;SDS011;26844;53.686;-6.346;2022-08-06T03:48:38;72.45;;;68.47;;
41099;SDS011;26844;53.686;-6.346;2022-08-06T03:51:12;69.65;;;65.20;;
41099;SDS011;26844;53.686;-6.346;2022-08-06T03:53:39;61.22;;;57.28;;
41099;SDS011;26844;53.686;-6.346;2022-08-06T03:56:06;61.85;;;58.50;;
41099;SDS011;26844;53.686;-6.346;2022-08-06T03:58:32;68.53;;;65.07;;
41099;SDS011;26844;53.686;-6.346;2022-08-06T04:01:04;71.88;;;67.78;;
41099;SDS011;26844;53.686;-6.346;2022-08-06T04:03:34;64.25;;;60.60;;
41099;SDS011;26844;53.686;-6.346;2022-08-06T04:06:00;64.63;;;61.25;;
41099;SDS011;26844;53.686;-6.346;2022-08-06T04:08:26;63.95;;;60.17;;
41099;SDS011;26844;53.686;-6.346;2022-08-06T04:10:52;77.57;;;73.25;;
41099;SDS011;26844;53.686;-6.346;2022-08-06T04:13:18;78.50;;;74.47;;
41099;SDS011;26844;53.686;-6.346;2022-08-06T04:15:44;79.35;;;74.78;;
41099;SDS011;26844;53.686;-6.346;2022-08-06T04:18:10;83.57;;;79.05;;
41099;SDS011;26844;53.686;-6.346;2022-08-06T04:20:41;90.65;;;85.68;;
41099;SDS011;26844;53.686;-6.346;2022-08-06T04:23:07;72.13;;;68.22;;
41099;SDS011;26844;53.686;-6.346;2022-08-06T04:25:36;83.03;;;78.57;;
41099;SDS011;26844;53.686;-6.346;2022-08-06T04:28:01;69.47;;;65.47;;
41099;SDS011;26844;53.686;-6.346;2022-08-06T04:30:27;78.05;;;74.18;;
41099;SDS011;26844;53.686;-6.346;2022-08-06T04:32:52;92.60;;;87.38;;
41099;SDS011;26844;53.686;-6.346;2022-08-06T04:35:18;104.05;;;98.68;;
41099;SDS011;26844;53.686;-6.346;2022-08-06T04:37:44;110.95;;;104.78;;
41099;SDS011;26844;53.686;-6.346;2022-08-06T04:40:09;125.05;;;118.80;;
41099;SDS011;26844;53.686;-6.346;2022-08-06T04:42:35;92.30;;;87.43;;
41099;SDS011;26844;53.686;-6.346;2022-08-06T04:45:00;108.47;;;102.40;;
41099;SDS011;26844;53.686;-6.346;2022-08-06T04:47:27;101.00;;;95.72;;
41099;SDS011;26844;53.686;-6.346;2022-08-06T04:49:53;96.22;;;91.28;;
41099;SDS011;26844;53.686;-6.346;2022-08-06T04:52:22;102.57;;;97.35;;
41099;SDS011;26844;53.686;-6.346;2022-08-06T04:54:48;84.28;;;79.80;;
41099;SDS011;26844;53.686;-6.346;2022-08-06T04:57:13;68.55;;;64.85;;
41099;SDS011;26844;53.686;-6.346;2022-08-06T04:59:38;50.63;;;47.28;;
41099;SDS011;26844;53.686;-6.346;2022-08-06T05:02:03;49.45;;;46.80;;
41099;SDS011;26844;53.686;-6.346;2022-08-06T05:04:29;56.13;;;52.80;;
41099;SDS011;26844;53.686;-6.346;2022-08-06T05:07:00;53.03;;;49.70;;
41099;SDS011;26844;53.686;-6.346;2022-08-06T05:09:26;46.05;;;43.38;;
41099;SDS011;26844;53.686;-6.346;2022-08-06T05:12:02;50.95;;;47.40;;
41099;SDS011;26844;53.686;-6.346;2022-08-06T05:14:30;49.65;;;46.95;;
41099;SDS011;26844;53.686;-6.346;2022-08-06T05:16:56;48.60;;;45.75;;
41099;SDS011;26844;53.686;-6.346;2022-08-06T05:19:28;50.90;;;48.08;;
41099;SDS011;26844;53.686;-6.346;2022-08-06T05:21:56;52.35;;;49.00;;
41099;SDS011;26844;53.686;-6.346;2022-08-06T05:24:23;46.38;;;43.42;;
41099;SDS011;26844;53.686;-6.346;2022-08-06T05:26:48;44.65;;;42.13;;
41099;SDS011;26844;53.686;-6.346;2022-08-06T05:29:17;48.30;;;45.47;;
41099;SDS011;26844;53.686;-6.346;2022-08-06T05:31:42;39.20;;;36.85;;
41099;SDS011;26844;53.686;-6.346;2022-08-06T05:34:11;40.67;;;37.95;;
41099;SDS011;26844;53.686;-6.346;2022-08-06T05:36:37;42.47;;;39.88;;
41099;SDS011;26844;53.686;-6.346;2022-08-06T05:39:03;38.25;;;36.15;;
41099;SDS011;26844;53.686;-6.346;2022-08-06T05:41:28;50.15;;;47.13;;
41099;SDS011;26844;53.686;-6.346;2022-08-06T05:43:53;61.60;;;58.45;;
41099;SDS011;26844;53.686;-6.346;2022-08-06T05:46:20;64.13;;;60.17;;
41099;SDS011;26844;53.686;-6.346;2022-08-06T05:48:59;86.00;;;81.70;;
41099;SDS011;26844;53.686;-6.346;2022-08-06T05:54:01;189.88;;;181.18;;
41099;SDS011;26844;53.686;-6.346;2022-08-06T05:56:30;289.67;;;275.85;;
41099;SDS011;26844;53.686;-6.346;2022-08-06T05:59:01;41.80;;;39.33;;
41099;SDS011;26844;53.686;-6.346;2022-08-06T06:01:27;297.02;;;282.30;;
41099;SDS011;26844;53.686;-6.346;2022-08-06T06:03:53;247.68;;;235.05;;
41099;SDS011;26844;53.686;-6.346;2022-08-06T06:06:20;266.63;;;252.93;;
41099;SDS011;26844;53.686;-6.346;2022-08-06T06:08:45;211.18;;;200.73;;
41099;SDS011;26844;53.686;-6.346;2022-08-06T06:11:10;124.13;;;117.93;;
41099;SDS011;26844;53.686;-6.346;2022-08-06T06:13:36;164.45;;;156.32;;
41099;SDS011;26844;53.686;-6.346;2022-08-06T06:16:05;132.50;;;125.78;;
41099;SDS011;26844;53.686;-6.346;2022-08-06T06:18:38;111.72;;;105.97;;
41099;SDS011;26844;53.686;-6.346;2022-08-06T06:21:16;230.07;;;218.90;;
41099;SDS011;26844;53.686;-6.346;2022-08-06T06:28:40;245.60;;;233.43;;
41099;SDS011;26844;53.686;-6.346;2022-08-06T06:31:09;284.70;;;269.80;;
41099;SDS011;26844;53.686;-6.346;2022-08-06T06:33:38;290.13;;;275.08;;
41099;SDS011;26844;53.686;-6.346;2022-08-06T06:36:51;271.15;;;256.75;;
41099;SDS011;26844;53.686;-6.346;2022-08-06T06:39:15;224.32;;;212.68;;
41099;SDS011;26844;53.686;-6.346;2022-08-06T06:41:46;252.13;;;239.30;;
41099;SDS011;26844;53.686;-6.346;2022-08-06T06:44:28;222.37;;;211.40;;
41099;SDS011;26844;53.686;-6.346;2022-08-06T06:47:16;190.23;;;180.55;;
41099;SDS011;26844;53.686;-6.346;2022-08-06T06:49:49;210.15;;;199.65;;
41099;SDS011;26844;53.686;-6.346;2022-08-06T06:52:18;155.68;;;147.82;;
41099;SDS011;26844;53.686;-6.346;2022-08-06T06:54:47;240.80;;;228.27;;
41099;SDS011;26844;53.686;-6.346;2022-08-06T06:57:15;198.38;;;188.75;;
41099;SDS011;26844;53.686;-6.346;2022-08-06T06:59:42;191.00;;;181.15;;
41099;SDS011;26844;53.686;-6.346;2022-08-06T07:02:10;124.15;;;118.10;;
41099;SDS011;26844;53.686;-6.346;2022-08-06T07:04:38;150.32;;;142.70;;
41099;SDS011;26844;53.686;-6.346;2022-08-06T07:07:03;146.98;;;140.13;;
41099;SDS011;26844;53.686;-6.346;2022-08-06T07:09:29;164.20;;;155.98;;
41099;SDS011;26844;53.686;-6.346;2022-08-06T07:11:56;151.57;;;143.68;;
41099;SDS011;26844;53.686;-6.346;2022-08-06T07:14:23;125.55;;;118.90;;
41099;SDS011;26844;53.686;-6.346;2022-08-06T07:16:50;146.73;;;139.05;;
41099;SDS011;26844;53.686;-6.346;2022-08-06T07:19:15;113.68;;;107.90;;
41099;SDS011;26844;53.686;-6.346;2022-08-06T07:21:42;122.82;;;116.78;;
41099;SDS011;26844;53.686;-6.346;2022-08-06T07:24:09;100.93;;;95.72;;
41099;SDS011;26844;53.686;-6.346;2022-08-06T07:26:35;115.53;;;108.88;;
41099;SDS011;26844;53.686;-6.346;2022-08-06T07:29:02;91.22;;;86.53;;
41099;SDS011;26844;53.686;-6.346;2022-08-06T07:31:27;88.88;;;83.72;;
41099;SDS011;26844;53.686;-6.346;2022-08-06T07:33:53;70.93;;;66.95;;
41099;SDS011;26844;53.686;-6.346;2022-08-06T07:36:20;92.75;;;88.28;;
41099;SDS011;26844;53.686;-6.346;2022-08-06T07:38:46;145.15;;;137.95;;
41099;SDS011;26844;53.686;-6.346;2022-08-06T07:41:13;119.32;;;113.28;;
41099;SDS011;26844;53.686;-6.346;2022-08-06T07:43:39;156.65;;;148.70;;
41099;SDS011;26844;53.686;-6.346;2022-08-06T07:46:06;120.43;;;114.50;;
41099;SDS011;26844;53.686;-6.346;2022-08-06T07:48:32;206.77;;;197.13;;
41099;SDS011;26844;53.686;-6.346;2022-08-06T07:51:00;220.43;;;209.63;;
41099;SDS011;26844;53.686;-6.346;2022-08-06T07:53:26;173.40;;;164.43;;
41099;SDS011;26844;53.686;-6.346;2022-08-06T07:55:51;189.98;;;180.60;;
41099;SDS011;26844;53.686;-6.346;2022-08-06T07:58:17;162.95;;;154.50;;
41099;SDS011;26844;53.686;-6.346;2022-08-06T08:00:43;126.32;;;119.90;;
41099;SDS011;26844;53.686;-6.346;2022-08-06T08:03:08;95.35;;;89.90;;
41099;SDS011;26844;53.686;-6.346;2022-08-06T08:05:53;120.60;;;113.68;;
41099;SDS011;26844;53.686;-6.346;2022-08-06T08:08:37;46.35;;;43.97;;
41099;SDS011;26844;53.686;-6.346;2022-08-06T08:11:02;54.33;;;51.30;;
41099;SDS011;26844;53.686;-6.346;2022-08-06T08:13:27;50.83;;;48.05;;
41099;SDS011;26844;53.686;-6.346;2022-08-06T08:15:54;73.25;;;69.07;;
41099;SDS011;26844;53.686;-6.346;2022-08-06T08:18:19;65.22;;;61.60;;
41099;SDS011;26844;53.686;-6.346;2022-08-06T08:20:45;85.13;;;81.15;;
41099;SDS011;26844;53.686;-6.346;2022-08-06T08:23:11;70.55;;;66.95;;
41099;SDS011;26844;53.686;-6.346;2022-08-06T08:25:37;63.10;;;59.78;;
41099;SDS011;26844;53.686;-6.346;2022-08-06T08:28:02;41.78;;;39.78;;
41099;SDS011;26844;53.686;-6.346;2022-08-06T08:30:29;59.80;;;56.77;;
41099;SDS011;26844;53.686;-6.346;2022-08-06T08:32:55;29.90;;;28.20;;
41099;SDS011;26844;53.686;-6.346;2022-08-06T08:35:20;67.28;;;63.97;;
41099;SDS011;26844;53.686;-6.346;2022-08-06T08:37:45;61.45;;;58.28;;
41099;SDS011;26844;53.686;-6.346;2022-08-06T08:40:11;53.75;;;50.65;;
41099;SDS011;26844;53.686;-6.346;2022-08-06T08:42:39;38.53;;;36.80;;
41099;SDS011;26844;53.686;-6.346;2022-08-06T08:45:05;52.90;;;50.22;;
41099;SDS011;26844;53.686;-6.346;2022-08-06T08:47:30;108.00;;;102.03;;
41099;SDS011;26844;53.686;-6.346;2022-08-06T08:49:58;32.03;;;30.42;;
41099;SDS011;26844;53.686;-6.346;2022-08-06T08:52:26;40.33;;;38.10;;
41099;SDS011;26844;53.686;-6.346;2022-08-06T08:54:54;30.70;;;29.25;;
41099;SDS011;26844;53.686;-6.346;2022-08-06T08:59:47;52.92;;;50.22;;
41099;SDS011;26844;53.686;-6.346;2022-08-06T09:02:13;62.47;;;59.30;;
41099;SDS011;26844;53.686;-6.346;2022-08-06T09:04:39;40.60;;;38.70;;
41099;SDS011;26844;53.686;-6.346;2022-08-06T09:07:04;60.33;;;57.15;;
41099;SDS011;26844;53.686;-6.346;2022-08-06T09:09:30;56.28;;;53.60;;
41099;SDS011;26844;53.686;-6.346;2022-08-06T09:11:57;56.65;;;53.63;;
41099;SDS011;26844;53.686;-6.346;2022-08-06T09:14:22;63.15;;;59.97;;
41099;SDS011;26844;53.686;-6.346;2022-08-06T09:16:47;79.22;;;75.25;;
41099;SDS011;26844;53.686;-6.346;2022-08-06T09:19:14;34.30;;;32.70;;
41099;SDS011;26844;53.686;-6.346;2022-08-06T09:21:40;64.32;;;61.17;;
41099;SDS011;26844;53.686;-6.346;2022-08-06T09:24:05;53.60;;;51.17;;
41099;SDS011;26844;53.686;-6.346;2022-08-06T09:26:30;58.30;;;55.35;;
41099;SDS011;26844;53.686;-6.346;2022-08-06T09:31:23;51.00;;;48.55;;
41099;SDS011;26844;53.686;-6.346;2022-08-06T09:34:07;75.25;;;71.72;;
41099;SDS011;26844;53.686;-6.346;2022-08-06T09:36:42;61.00;;;58.20;;
41099;SDS011;26844;53.686;-6.346;2022-08-06T09:39:08;65.97;;;63.00;;
41099;SDS011;26844;53.686;-6.346;2022-08-06T09:41:33;61.88;;;59.17;;
41099;SDS011;26844;53.686;-6.346;2022-08-06T09:44:00;59.28;;;56.58;;
41099;SDS011;26844;53.686;-6.346;2022-08-06T09:49:02;164.70;;;154.95;;
41099;SDS011;26844;53.686;-6.346;2022-08-06T09:51:28;49.67;;;47.35;;
41099;SDS011;26844;53.686;-6.346;2022-08-06T09:53:57;88.72;;;84.30;;
41099;SDS011;26844;53.686;-6.346;2022-08-06T09:56:22;41.72;;;39.90;;
41099;SDS011;26844;53.686;-6.346;2022-08-06T09:58:48;97.10;;;92.47;;
41099;SDS011;26844;53.686;-6.346;2022-08-06T10:01:15;45.50;;;43.38;;
41099;SDS011;26844;53.686;-6.346;2022-08-06T10:03:41;79.53;;;75.00;;
41099;SDS011;26844;53.686;-6.346;2022-08-06T10:06:14;58.15;;;55.58;;
41099;SDS011;26844;53.686;-6.346;2022-08-06T10:08:40;92.13;;;87.18;;
41099;SDS011;26844;53.686;-6.346;2022-08-06T10:11:05;179.45;;;169.02;;
41099;SDS011;26844;53.686;-6.346;2022-08-06T10:13:31;92.82;;;87.70;;
41099;SDS011;26844;53.686;-6.346;2022-08-06T10:15:58;158.18;;;149.10;;
41099;SDS011;26844;53.686;-6.346;2022-08-06T10:23:27;84.32;;;80.57;;
41099;SDS011;26844;53.686;-6.346;2022-08-06T10:25:53;64.03;;;61.20;;
41099;SDS011;26844;53.686;-6.346;2022-08-06T10:28:18;145.77;;;137.10;;
41099;SDS011;26844;53.686;-6.346;2022-08-06T10:30:43;78.90;;;74.88;;
41099;SDS011;26844;53.686;-6.346;2022-08-06T10:33:10;84.10;;;80.15;;
41099;SDS011;26844;53.686;-6.346;2022-08-06T10:35:35;75.50;;;72.20;;
41099;SDS011;26844;53.686;-6.346;2022-08-06T10:38:02;107.32;;;101.53;;
41099;SDS011;26844;53.686;-6.346;2022-08-06T10:42:53;118.25;;;111.88;;
41099;SDS011;26844;53.686;-6.346;2022-08-06T10:45:20;81.15;;;77.30;;
41099;SDS011;26844;53.686;-6.346;2022-08-06T10:47:46;82.22;;;78.18;;
41099;SDS011;26844;53.686;-6.346;2022-08-06T10:50:12;95.32;;;91.10;;
41099;SDS011;26844;53.686;-6.346;2022-08-06T10:52:38;89.35;;;85.43;;
41099;SDS011;26844;53.686;-6.346;2022-08-06T10:55:04;79.55;;;75.78;;
41099;SDS011;26844;53.686;-6.346;2022-08-06T10:57:30;98.55;;;94.07;;
41099;SDS011;26844;53.686;-6.346;2022-08-06T10:59:56;104.00;;;99.20;;
41099;SDS011;26844;53.686;-6.346;2022-08-06T11:02:32;89.80;;;85.45;;
41099;SDS011;26844;53.686;-6.346;2022-08-06T11:14:55;67.85;;;64.45;;
41099;SDS011;26844;53.686;-6.346;2022-08-06T11:17:21;95.90;;;91.38;;
41099;SDS011;26844;53.686;-6.346;2022-08-06T11:19:48;87.15;;;82.53;;
41099;SDS011;26844;53.686;-6.346;2022-08-06T11:24:57;97.85;;;93.30;;
41099;SDS011;26844;53.686;-6.346;2022-08-06T11:30:36;45.75;;;43.40;;
41099;SDS011;26844;53.686;-6.346;2022-08-06T11:33:03;49.85;;;47.42;;
41099;SDS011;26844;53.686;-6.346;2022-08-06T11:37:59;48.95;;;46.55;;
41099;SDS011;26844;53.686;-6.346;2022-08-06T11:40:25;53.60;;;50.47;;
41099;SDS011;26844;53.686;-6.346;2022-08-06T11:42:50;69.82;;;66.13;;
41099;SDS011;26844;53.686;-6.346;2022-08-06T11:45:16;58.55;;;55.85;;
41099;SDS011;26844;53.686;-6.346;2022-08-06T11:50:25;43.13;;;41.13;;
41099;SDS011;26844;53.686;-6.346;2022-08-06T11:52:50;57.38;;;54.53;;
41099;SDS011;26844;53.686;-6.346;2022-08-06T11:55:15;53.08;;;50.58;;
41099;SDS011;26844;53.686;-6.346;2022-08-06T11:57:40;54.00;;;51.50;;
41099;SDS011;26844;53.686;-6.346;2022-08-06T12:00:07;48.53;;;46.35;;
41099;SDS011;26844;53.686;-6.346;2022-08-06T12:07:40;50.05;;;47.70;;
41099;SDS011;26844;53.686;-6.346;2022-08-06T12:20:52;55.22;;;52.65;;
41099;SDS011;26844;53.686;-6.346;2022-08-06T12:23:10;47.65;;;45.50;;
41099;SDS011;26844;53.686;-6.346;2022-08-06T12:25:39;48.47;;;46.28;;
41099;SDS011;26844;53.686;-6.346;2022-08-06T12:28:05;50.55;;;48.35;;
41099;SDS011;26844;53.686;-6.346;2022-08-06T12:30:46;41.05;;;39.20;;
41099;SDS011;26844;53.686;-6.346;2022-08-06T12:33:12;48.83;;;46.65;;
41099;SDS011;26844;53.686;-6.346;2022-08-06T12:38:18;32.00;;;30.58;;
41099;SDS011;26844;53.686;-6.346;2022-08-06T12:40:54;35.07;;;33.40;;
41099;SDS011;26844;53.686;-6.346;2022-08-06T12:43:20;38.88;;;36.90;;
41099;SDS011;26844;53.686;-6.346;2022-08-06T12:45:45;35.75;;;34.17;;
41099;SDS011;26844;53.686;-6.346;2022-08-06T12:48:11;43.20;;;41.17;;
41099;SDS011;26844;53.686;-6.346;2022-08-06T12:50:37;45.70;;;43.28;;
41099;SDS011;26844;53.686;-6.346;2022-08-06T12:55:33;67.82;;;64.40;;
41099;SDS011;26844;53.686;-6.346;2022-08-06T12:57:58;70.10;;;66.75;;
41099;SDS011;26844;53.686;-6.346;2022-08-06T13:00:24;66.50;;;63.10;;
41099;SDS011;26844;53.686;-6.346;2022-08-06T13:02:50;78.50;;;74.53;;
41099;SDS011;26844;53.686;-6.346;2022-08-06T13:05:15;63.13;;;59.95;;
41099;SDS011;26844;53.686;-6.346;2022-08-06T13:07:41;58.63;;;56.03;;
41099;SDS011;26844;53.686;-6.346;2022-08-06T13:10:10;73.53;;;70.03;;
41099;SDS011;26844;53.686;-6.346;2022-08-06T13:12:36;55.05;;;52.50;;
41099;SDS011;26844;53.686;-6.346;2022-08-06T13:15:09;55.22;;;52.60;;
41099;SDS011;26844;53.686;-6.346;2022-08-06T13:17:35;46.65;;;44.53;;
41099;SDS011;26844;53.686;-6.346;2022-08-06T13:20:00;49.88;;;47.40;;
41099;SDS011;26844;53.686;-6.346;2022-08-06T13:22:25;46.03;;;43.90;;
41099;SDS011;26844;53.686;-6.346;2022-08-06T13:25:12;51.92;;;49.58;;
41099;SDS011;26844;53.686;-6.346;2022-08-06T13:27:36;41.80;;;39.75;;
41099;SDS011;26844;53.686;-6.346;2022-08-06T13:30:02;36.88;;;35.15;;
41099;SDS011;26844;53.686;-6.346;2022-08-06T13:32:28;45.17;;;43.05;;
41099;SDS011;26844;53.686;-6.346;2022-08-06T13:34:55;54.10;;;51.65;;
41099;SDS011;26844;53.686;-6.346;2022-08-06T13:40:05;67.07;;;63.40;;
41099;SDS011;26844;53.686;-6.346;2022-08-06T13:42:30;44.63;;;42.50;;
41099;SDS011;26844;53.686;-6.346;2022-08-06T13:44:56;54.72;;;52.03;;
41099;SDS011;26844;53.686;-6.346;2022-08-06T13:47:28;66.57;;;63.47;;
41099;SDS011;26844;53.686;-6.346;2022-08-06T13:49:53;53.80;;;51.35;;
41099;SDS011;26844;53.686;-6.346;2022-08-06T13:52:18;35.83;;;34.20;;
41099;SDS011;26844;53.686;-6.346;2022-08-06T13:54:44;48.58;;;46.25;;
41099;SDS011;26844;53.686;-6.346;2022-08-06T13:57:09;40.75;;;38.90;;
41099;SDS011;26844;53.686;-6.346;2022-08-06T13:59:36;61.08;;;58.25;;
41099;SDS011;26844;53.686;-6.346;2022-08-06T14:02:03;64.78;;;61.72;;
41099;SDS011;26844;53.686;-6.346;2022-08-06T14:04:28;62.05;;;59.15;;
41099;SDS011;26844;53.686;-6.346;2022-08-06T14:06:54;54.17;;;51.67;;
41099;SDS011;26844;53.686;-6.346;2022-08-06T14:09:21;64.25;;;61.20;;
41099;SDS011;26844;53.686;-6.346;2022-08-06T14:11:57;41.83;;;39.97;;
41099;SDS011;26844;53.686;-6.346;2022-08-06T14:14:24;57.72;;;55.03;;
41099;SDS011;26844;53.686;-6.346;2022-08-06T14:16:50;55.38;;;52.53;;
41099;SDS011;26844;53.686;-6.346;2022-08-06T14:19:15;95.13;;;89.63;;
41099;SDS011;26844;53.686;-6.346;2022-08-06T14:21:41;75.18;;;71.47;;
41099;SDS011;26844;53.686;-6.346;2022-08-06T14:24:06;62.65;;;59.92;;
41099;SDS011;26844;53.686;-6.346;2022-08-06T14:26:31;67.30;;;63.78;;
41099;SDS011;26844;53.686;-6.346;2022-08-06T14:28:56;67.30;;;64.20;;
41099;SDS011;26844;53.686;-6.346;2022-08-06T14:31:22;74.63;;;71.20;;
41099;SDS011;26844;53.686;-6.346;2022-08-06T14:33:47;75.35;;;71.22;;
41099;SDS011;26844;53.686;-6.346;2022-08-06T14:36:12;76.57;;;72.50;;
41099;SDS011;26844;53.686;-6.346;2022-08-06T14:38:37;95.88;;;90.95;;
41099;SDS011;26844;53.686;-6.346;2022-08-06T14:41:05;53.97;;;51.38;;
41099;SDS011;26844;53.686;-6.346;2022-08-06T14:43:48;56.28;;;53.35;;
41099;SDS011;26844;53.686;-6.346;2022-08-06T14:46:32;62.03;;;59.13;;
41099;SDS011;26844;53.686;-6.346;2022-08-06T14:48:58;81.18;;;77.47;;
41099;SDS011;26844;53.686;-6.346;2022-08-06T14:51:25;70.38;;;66.82;;
41099;SDS011;26844;53.686;-6.346;2022-08-06T14:53:50;104.63;;;98.45;;
41099;SDS011;26844;53.686;-6.346;2022-08-06T14:56:15;77.78;;;73.88;;
41099;SDS011;26844;53.686;-6.346;2022-08-06T14:58:40;64.70;;;61.65;;
41099;SDS011;26844;53.686;-6.346;2022-08-06T15:01:06;72.53;;;69.13;;
41099;SDS011;26844;53.686;-6.346;2022-08-06T15:03:31;65.75;;;62.50;;
41099;SDS011;26844;53.686;-6.346;2022-08-06T15:05:56;57.13;;;54.38;;
41099;SDS011;26844;53.686;-6.346;2022-08-06T15:08:22;63.20;;;60.00;;
41099;SDS011;26844;53.686;-6.346;2022-08-06T15:10:47;26.75;;;25.35;;
41099;SDS011;26844;53.686;-6.346;2022-08-06T15:13:12;32.60;;;30.83;;
41099;SDS011;26844;53.686;-6.346;2022-08-06T15:15:37;35.40;;;33.78;;
41099;SDS011;26844;53.686;-6.346;2022-08-06T15:18:03;72.05;;;67.85;;
41099;SDS011;26844;53.686;-6.346;2022-08-06T15:20:28;41.00;;;38.72;;
41099;SDS011;26844;53.686;-6.346;2022-08-06T15:22:53;31.85;;;30.13;;
41099;SDS011;26844;53.686;-6.346;2022-08-06T15:25:19;41.13;;;39.17;;